createdAt,value
2023-03-26T00:01:46.537Z,51.83
2023-03-26T00:06:51.441Z,51.89
2023-03-26T00:11:53.120Z,51.91
2023-03-26T00:16:57.754Z,51.91
2023-03-26T00:21:59.445Z,51.53
2023-03-26T00:27:02.282Z,51.67
2023-03-26T00:32:10.247Z,51.69
2023-03-26T00:37:15.108Z,51.44
2023-03-26T00:42:16.742Z,51.31
2023-03-26T00:47:21.404Z,51.29
2023-03-26T00:52:28.509Z,51.12
2023-03-26T00:57:35.979Z,50.99
2023-03-26T01:02:40.838Z,51.00
2023-03-26T01:07:42.734Z,50.88
2023-03-26T01:12:44.521Z,51.21
2023-03-26T01:17:48.691Z,50.76
2023-03-26T01:22:59.833Z,50.81
2023-03-26T01:28:08.783Z,50.77
2023-03-26T01:33:30.155Z,50.87
2023-03-26T01:38:46.647Z,50.81
2023-03-26T01:44:00.055Z,50.55
2023-03-26T01:49:07.314Z,50.50
2023-03-26T01:54:19.389Z,50.61
2023-03-26T01:59:52.202Z,50.57
2023-03-26T02:05:12.560Z,50.60
2023-03-26T02:10:24.228Z,50.88
2023-03-26T02:15:30.509Z,50.83
2023-03-26T02:20:37.382Z,50.63
2023-03-26T02:25:39.869Z,50.67
2023-03-26T02:30:47.861Z,50.88
2023-03-26T02:35:50.274Z,50.89
2023-03-26T02:40:53.373Z,50.96
2023-03-26T02:46:00.930Z,50.94
2023-03-26T02:51:27.389Z,51.02
2023-03-26T02:56:38.460Z,50.69
2023-03-26T03:01:53.610Z,50.25
2023-03-26T03:07:20.326Z,50.38
2023-03-26T03:12:24.837Z,50.75
2023-03-26T03:17:35.452Z,50.69
2023-03-26T03:22:37.808Z,50.54
2023-03-26T03:27:41.609Z,50.27
2023-03-26T03:32:50.178Z,50.69
2023-03-26T03:37:58.578Z,50.63
2023-03-26T03:43:01.358Z,50.43
2023-03-26T03:48:18.414Z,50.41
2023-03-26T03:53:25.933Z,50.46
2023-03-26T03:58:31.527Z,50.56
2023-03-26T04:03:46.536Z,50.00
2023-03-26T04:08:51.718Z,50.41
2023-03-26T04:13:57.241Z,49.85
2023-03-26T04:19:23.293Z,50.34
2023-03-26T04:24:34.101Z,50.33
2023-03-26T04:29:44.772Z,50.48
2023-03-26T04:34:56.129Z,50.33
2023-03-26T04:40:02.626Z,50.40
2023-03-26T04:45:11.340Z,50.38
2023-03-26T04:50:15.568Z,50.21
2023-03-26T04:55:31.526Z,50.19
2023-03-26T05:00:47.754Z,50.26
2023-03-26T05:05:58.672Z,50.59
2023-03-26T05:11:01.564Z,50.47
2023-03-26T05:16:09.485Z,50.65
2023-03-26T05:21:14.794Z,50.43
2023-03-26T05:26:20.422Z,50.47
2023-03-26T05:31:33.572Z,50.97
2023-03-26T05:36:36.993Z,50.86
2023-03-26T05:42:16.149Z,50.93
2023-03-26T05:47:35.588Z,51.19
2023-03-26T05:52:41.107Z,50.97
2023-03-26T05:57:59.181Z,51.15
2023-03-26T06:03:19.634Z,51.20
2023-03-26T06:08:46.842Z,51.30
2023-03-26T06:13:49.214Z,51.53
2023-03-26T06:19:02.032Z,51.53
2023-03-26T06:24:22.581Z,51.59
2023-03-26T06:29:50.619Z,51.75
2023-03-26T06:35:08.703Z,51.98
2023-03-26T06:40:10.818Z,52.05
2023-03-26T06:45:24.263Z,51.94
2023-03-26T06:50:44.562Z,52.14
2023-03-26T06:56:13.093Z,52.46
2023-03-26T07:01:31.989Z,52.49
2023-03-26T07:06:54.278Z,52.35
2023-03-26T07:12:21.745Z,52.43
2023-03-26T07:17:43.058Z,52.43
2023-03-26T07:23:00.400Z,52.19
2023-03-26T07:29:04.955Z,52.18
2023-03-26T07:35:21.626Z,52.52
2023-03-26T07:40:53.267Z,52.21
2023-03-26T07:46:14.379Z,52.43
2023-03-26T07:51:41.785Z,52.23
2023-03-26T07:57:22.572Z,52.15
2023-03-26T08:03:11.483Z,52.20
2023-03-26T08:09:13.306Z,52.35
2023-03-26T08:15:02.408Z,52.38
2023-03-26T08:20:37.518Z,52.30
2023-03-26T08:26:04.511Z,52.46
2023-03-26T08:31:12.585Z,52.71
2023-03-26T08:36:16.447Z,52.88
2023-03-26T08:41:46.846Z,52.65
2023-03-26T08:47:18.548Z,52.90
2023-03-26T08:53:07.654Z,52.81
2023-03-26T08:58:37.225Z,52.96
2023-03-26T09:03:50.987Z,52.99
2023-03-26T09:09:35.713Z,53.14
2023-03-26T09:14:48.879Z,53.56
2023-03-26T09:20:12.138Z,53.44
2023-03-26T09:25:48.338Z,53.50
2023-03-26T09:31:30.358Z,53.91
2023-03-26T09:36:36.445Z,53.67
2023-03-26T09:42:30.808Z,53.68
2023-03-26T09:47:39.137Z,53.54
2023-03-26T09:53:08.773Z,52.90
2023-03-26T09:58:56.611Z,53.68
2023-03-26T10:04:40.985Z,53.84
2023-03-26T10:09:55.644Z,53.90
2023-03-26T10:15:05.428Z,53.31
2023-03-26T10:20:31.786Z,53.46
2023-03-26T10:25:51.673Z,53.41
2023-03-26T10:31:19.159Z,53.27
2023-03-26T10:36:37.234Z,53.54
2023-03-26T10:41:54.150Z,53.41
2023-03-26T10:47:23.397Z,53.50
2023-03-26T10:52:48.456Z,53.30
2023-03-26T10:57:59.888Z,53.56
2023-03-26T11:03:27.180Z,53.31
2023-03-26T11:08:53.786Z,53.63
2023-03-26T11:14:21.388Z,53.65
2023-03-26T11:19:52.689Z,53.70
2023-03-26T11:25:05.828Z,53.82
2023-03-26T11:30:41.616Z,54.05
2023-03-26T11:35:55.327Z,54.24
2023-03-26T11:40:59.120Z,54.67
2023-03-26T11:46:22.818Z,54.80
2023-03-26T11:51:33.046Z,54.72
2023-03-26T11:57:05.498Z,54.75
2023-03-26T12:02:14.440Z,54.88
2023-03-26T12:07:23.488Z,54.86
2023-03-26T12:12:29.319Z,55.19
2023-03-26T12:17:32.781Z,55.18
2023-03-26T12:22:43.481Z,55.58
2023-03-26T12:28:13.433Z,55.13
2023-03-26T12:33:34.225Z,55.71
2023-03-26T12:38:39.107Z,55.57
2023-03-26T12:44:56.341Z,55.84
2023-03-26T12:49:06.256Z,56.44
2023-03-26T12:54:42.395Z,55.81
2023-03-26T13:00:22.896Z,55.72
2023-03-26T13:05:55.996Z,55.87
2023-03-26T13:11:19.442Z,56.15
2023-03-26T13:16:31.177Z,55.99
2023-03-26T13:22:25.055Z,56.10
2023-03-26T13:28:00.416Z,55.90
2023-03-26T13:33:26.180Z,55.93
2023-03-26T13:38:33.876Z,56.08
2023-03-26T13:43:46.272Z,55.70
2023-03-26T13:49:01.932Z,55.60
2023-03-26T13:54:15.719Z,55.86
2023-03-26T13:59:40.150Z,55.66
2023-03-26T14:04:49.537Z,55.16
2023-03-26T14:10:01.276Z,55.10
2023-03-26T14:15:11.493Z,55.39
2023-03-26T14:20:24.685Z,54.86
2023-03-26T14:25:42.105Z,55.25
2023-03-26T14:30:57.432Z,55.02
2023-03-26T14:36:12.575Z,55.44
2023-03-26T14:41:24.305Z,55.22
2023-03-26T14:46:44.357Z,55.01
2023-03-26T14:52:04.136Z,54.26
2023-03-26T14:57:21.478Z,54.30
2023-03-26T15:02:26.216Z,53.54
2023-03-26T15:07:47.959Z,53.19
2023-03-26T15:13:30.920Z,52.94
2023-03-26T15:19:09.890Z,52.74
2023-03-26T15:24:20.436Z,52.79
2023-03-26T15:29:48.376Z,52.96
2023-03-26T15:35:00.772Z,53.17
2023-03-26T15:40:30.839Z,53.56
2023-03-26T15:45:45.954Z,53.60
2023-03-26T15:50:59.721Z,53.03
2023-03-26T15:56:11.149Z,52.95
2023-03-26T16:01:20.161Z,53.00
2023-03-26T16:06:50.069Z,52.92
2023-03-26T16:11:59.181Z,52.71
2023-03-26T16:17:02.677Z,52.30
2023-03-26T16:22:27.871Z,52.04
2023-03-26T16:27:32.106Z,51.91
2023-03-26T16:32:48.029Z,51.92
2023-03-26T16:38:09.192Z,51.63
2023-03-26T16:43:24.330Z,51.10
2023-03-26T16:48:31.477Z,50.44
2023-03-26T16:53:53.182Z,50.05
2023-03-26T16:59:08.806Z,50.01
2023-03-26T17:04:19.175Z,49.82
2023-03-26T17:09:55.513Z,50.12
2023-03-26T17:15:05.966Z,50.24
2023-03-26T17:20:18.422Z,50.04
2023-03-26T17:25:42.328Z,50.23
2023-03-26T17:30:53.667Z,50.31
2023-03-26T17:36:21.357Z,50.47
2023-03-26T17:41:51.536Z,50.46
2023-03-26T17:46:57.013Z,50.83
2023-03-26T17:52:17.068Z,51.14
2023-03-26T17:57:40.020Z,51.29
2023-03-26T18:02:48.440Z,51.57
2023-03-26T18:08:29.556Z,51.79
2023-03-26T18:14:03.092Z,52.01
2023-03-26T18:19:18.182Z,51.93
2023-03-26T18:24:30.429Z,51.91
2023-03-26T18:29:36.597Z,51.72
2023-03-26T18:34:49.832Z,52.19
2023-03-26T18:40:16.200Z,51.74
2023-03-26T18:45:23.011Z,51.94
2023-03-26T18:50:38.031Z,52.01
2023-03-26T18:55:40.415Z,51.85
2023-03-26T19:00:42.712Z,52.22
2023-03-26T19:05:52.324Z,52.15
2023-03-26T19:10:55.271Z,52.31
2023-03-26T19:15:57.073Z,52.24
2023-03-26T19:21:02.332Z,52.26
2023-03-26T19:26:06.978Z,52.42
2023-03-26T19:31:15.996Z,51.91
2023-03-26T19:36:24.287Z,51.94
2023-03-26T19:41:31.298Z,51.77
2023-03-26T19:46:53.830Z,51.90
2023-03-26T19:52:13.237Z,52.13
2023-03-26T19:57:21.468Z,52.19
2023-03-26T20:02:23.317Z,52.09
2023-03-26T20:07:35.336Z,52.59
2023-03-26T20:12:37.690Z,52.01
2023-03-26T20:17:42.681Z,53.00
2023-03-26T20:22:46.883Z,52.31
2023-03-26T20:27:48.880Z,52.73
2023-03-26T20:33:12.790Z,52.75
2023-03-26T20:38:19.831Z,52.87
2023-03-26T20:43:24.079Z,52.88
2023-03-26T20:48:28.532Z,52.98
2023-03-26T20:53:32.661Z,53.20
2023-03-26T20:58:34.296Z,52.88
2023-03-26T21:03:40.772Z,53.04
2023-03-26T21:08:45.539Z,53.41
2023-03-26T21:13:58.082Z,53.26
2023-03-26T21:19:00.110Z,53.47
2023-03-26T21:24:20.526Z,53.47
2023-03-26T21:29:25.286Z,53.38
2023-03-26T21:34:29.303Z,53.26
2023-03-26T21:39:32.730Z,53.49
2023-03-26T21:44:34.681Z,53.18
2023-03-26T21:49:38.945Z,53.48
2023-03-26T21:54:43.834Z,53.37
2023-03-26T22:00:11.581Z,53.51
2023-03-26T22:05:25.550Z,53.42
2023-03-26T22:10:27.865Z,53.67
2023-03-26T22:15:35.452Z,53.42
2023-03-26T22:20:37.609Z,53.50
2023-03-26T22:25:44.196Z,53.81
2023-03-26T22:30:46.320Z,53.75
2023-03-26T22:35:47.925Z,54.27
2023-03-26T22:40:57.459Z,53.76
2023-03-26T22:45:59.415Z,53.83
2023-03-26T22:51:04.277Z,54.06
2023-03-26T22:56:06.417Z,53.98
2023-03-26T23:01:18.813Z,54.15
2023-03-26T23:06:22.716Z,53.79
2023-03-26T23:11:29.565Z,54.01
2023-03-26T23:16:33.646Z,53.76
2023-03-26T23:21:37.676Z,53.76
2023-03-26T23:26:50.639Z,53.80
2023-03-26T23:31:54.020Z,54.14
2023-03-26T23:36:57.932Z,54.00
2023-03-26T23:41:59.516Z,54.12
2023-03-26T23:47:01.141Z,53.97
2023-03-26T23:52:12.080Z,54.11
2023-03-26T23:57:13.834Z,54.38
